WetterOnline ( https://www.wetteronline.de )

Wetter aktuell Giampilieri

Aktuelles Wetter: Messina (51m)

6-stündlich | Neueste Meldungen
Ortszeit Temperatur Wetter
Di, 27.10. 7:00 15.6° C leicht bewölkt
Di, 27.10. 1:00 16.6° C wolkenlos
Mo, 26.10. 19:00 18.2° C wolkenlos
Mo, 26.10. 13:00 21.8° C fast wolkenlos
Mo, 26.10. 7:00 16.4° C fast wolkenlos
Mo, 26.10. 1:00 17.2° C wolkenlos
So, 25.10. 19:00 18.8° C leicht bewölkt
So, 25.10. 13:00 19.0° C wolkig
Ortszeit Temperatur Wetter
Di, 27.10. 10:00 18.4° C bewölkt
Di, 27.10. 9:55 18° C leicht bewölkt
Di, 27.10. 9:00 18.0° C wolkig
Di, 27.10. 8:55 18° C leicht bewölkt
Di, 27.10. 8:00 17.6° C wolkig
Di, 27.10. 7:55 18° C leicht bewölkt
Di, 27.10. 7:00 15.6° C leicht bewölkt
Di, 27.10. 6:55 16° C leicht bewölkt
Di, 27.10. 6:00 15.6° C leicht bewölkt
Ortszeit Relative Feuchte Sichtweite
Di, 27.10. 7:00 86% 20 km
Di, 27.10. 1:00 87% 12 km
Mo, 26.10. 19:00 74% 20 km
Mo, 26.10. 13:00 59% 25 km
Mo, 26.10. 7:00 86% 20 km
Mo, 26.10. 1:00 86% 16 km
So, 25.10. 19:00 77% 16 km
So, 25.10. 13:00 82% 16 km
Ortszeit Relative Feuchte Sichtweite
Di, 27.10. 10:00 80% 10 km
Di, 27.10. 9:55 83% >10 km
Di, 27.10. 9:00 75% 10 km
Di, 27.10. 8:55 77% >10 km
Di, 27.10. 8:00 76% 20 km
Di, 27.10. 7:55 73% >10 km
Di, 27.10. 7:00 86% 20 km
Di, 27.10. 6:55 82% >10 km
Di, 27.10. 6:00 92% 20 km
Ortszeit Niederschlagsmenge Niederschlagsart
Di, 27.10. 7:00 0.0 l/m2 in 12 Std. -
Di, 27.10. 1:00 0.0 l/m2 in 6 Std. -
Mo, 26.10. 19:00 0.0 l/m2 in 12 Std. -
Mo, 26.10. 13:00 0.0 l/m2 in 6 Std. -
Mo, 26.10. 7:00 0.0 l/m2 in 12 Std. -
Mo, 26.10. 1:00 0.0 l/m2 in 6 Std. -
So, 25.10. 19:00 4 l/m2 in 12 Std. Regen
So, 25.10. 13:00 2 l/m2 in 6 Std. Regen
Ortszeit Niederschlagsmenge Niederschlagsart
Di, 27.10. 10:00 keine Meldung -
Di, 27.10. 9:55 keine Meldung -
Di, 27.10. 9:00 keine Meldung -
Di, 27.10. 8:55 keine Meldung -
Di, 27.10. 8:00 keine Meldung -
Di, 27.10. 7:55 keine Meldung -
Di, 27.10. 7:00 keine Meldung -
Di, 27.10. 6:55 keine Meldung -
Di, 27.10. 6:00 keine Meldung -
Ortszeit Stärke Spitze Richtung
km/h Bft. km/h Grad Sektor
Di, 27.10. 7:00 6 1 - 240° SW
Di, 27.10. 1:00 0 0 - - -
Mo, 26.10. 19:00 2 1 - 240° SW
Mo, 26.10. 13:00 7 2 - 120° SO
Mo, 26.10. 7:00 6 1 - 330° NW
Mo, 26.10. 1:00 6 1 - 340° N
So, 25.10. 19:00 4 1 - 300° NW
So, 25.10. 13:00 11 2 - 350° N
Ortszeit Stärke Spitze Richtung
km/h Bft. km/h Grad Sektor
Di, 27.10. 10:00 0 0 - - -
Di, 27.10. 9:55 0 0 - - -
Di, 27.10. 9:00 7 2 - 270° W
Di, 27.10. 8:55 7 2 - 270° W
Di, 27.10. 8:00 4 1 - 230° SW
Di, 27.10. 7:55 4 1 - 230° SW
Di, 27.10. 7:00 6 1 - 240° SW
Di, 27.10. 6:55 6 1 - 240° SW
Di, 27.10. 6:00 6 1 - 250° W
Ortszeit Untergrenze Bedeckung Gattung
total tief tief mittel hoch
Di, 27.10. 7:00 900 m 5/8 1/8 Sc - Ci
Di, 27.10. 1:00 - 0/8 0/8 - - -
Mo, 26.10. 19:00 - 0/8 0/8 - - -
Mo, 26.10. 13:00 900 m 1/8 1/8 Cu - -
Mo, 26.10. 7:00 900 m 1/8 1/8 Sc - -
Mo, 26.10. 1:00 - 0/8 0/8 - - -
So, 25.10. 19:00 450 m 3/8 3/8 Cu - -
So, 25.10. 13:00 600 m 7/8 6/8 Cu As Cs
Ortszeit Bedeckungsgrad in Achtel und Wolkenuntergrenze
Di, 27.10. 10:00 1(750m) 3(900m) 5(2400m)
Di, 27.10. 9:55 1-2(750m) 3-4(900m)
Di, 27.10. 9:00 1(750m) 3(900m)
Di, 27.10. 8:55 1-2(750m) 3-4(900m)
Di, 27.10. 8:00 1(1050m) 3(1200m)
Di, 27.10. 7:55 1-2(1050m) 3-4(1200m)
Di, 27.10. 7:00 1(900m) 5(6000m)
Di, 27.10. 6:55 1-2(900m)
Di, 27.10. 6:00 1(900m)
Ortszeit Luftdruck NN (hPa) Tendenz (hPa in 3 Std.)
Di, 27.10. 7:00 1012 - 0,4
Di, 27.10. 1:00 1014 - 0,6
Mo, 26.10. 19:00 1014 0,0
Mo, 26.10. 13:00 1016 - 0,8
Mo, 26.10. 7:00 1018 - 0,4
Mo, 26.10. 1:00 1019 + 0,2
So, 25.10. 19:00 1019 + 0,3
So, 25.10. 13:00 1019 + 0,1
Ortszeit Luftdruck NN (hPa) Tendenz (hPa in 3 Std.)
Di, 27.10. 10:00 1013 + 0,5
Di, 27.10. 9:55 1012 keine Meldung
Di, 27.10. 9:00 1013 + 0,4
Di, 27.10. 8:55 1012 keine Meldung
Di, 27.10. 8:00 1013 + 0,1
Di, 27.10. 7:55 1012 keine Meldung
Di, 27.10. 7:00 1012 - 0,4
Di, 27.10. 6:55 1012 keine Meldung
Di, 27.10. 6:00 1012 - 1,0
Ortszeit Schneehöhe (cm)
Di, 27.10. 7:00 0
Di, 27.10. 1:00 -
Mo, 26.10. 19:00 -
Mo, 26.10. 13:00 -
Mo, 26.10. 7:00 0
Mo, 26.10. 1:00 -
So, 25.10. 19:00 -
So, 25.10. 13:00 -
Ortszeit Schneehöhe (cm)
Di, 27.10. 10:00 -
Di, 27.10. 9:55 -
Di, 27.10. 9:00 -
Di, 27.10. 8:55 -
Di, 27.10. 8:00 -
Di, 27.10. 7:55 -
Di, 27.10. 7:00 0
Di, 27.10. 6:55 -
Di, 27.10. 6:00 -
Link zu dieser Seite / Seite empfehlen

Das Wetter in ...